Time;durP1;ratioP1;P1;durP2;ratioP2;P2;SDS_P1;SDS_P2;PMS_P1;PMS_P2;Temp;Humidity;BMP_temperature;BMP_pressure;BME280_temperature;BME280_humidity;BME280_pressure;Samples;Min_cycle;Max_cycle;Signal;HPM_P1;HPM_P2
2022/07/24 00:00:00;;;;;;;3.90;1.80;;;;;;;;;;5068375;28;20020;-74
2022/07/24 00:02:26;;;;;;;3.33;1.50;;;;;;;;;;5068012;28;20502;-73
2022/07/24 00:04:56;;;;;;;4.90;1.42;;;;;;;;;;5070722;28;20050;-75
2022/07/24 00:07:22;;;;;;;1.52;1.42;;;;;;;;;;5072487;28;20033;-75
2022/07/24 00:09:48;;;;;;;2.72;1.58;;;;;;;;;;5071483;28;20033;-75
2022/07/24 00:12:14;;;;;;;5.22;1.63;;;;;;;;;;5069839;28;20032;-75
2022/07/24 00:14:40;;;;;;;1.75;1.52;;;;;;;;;;5070613;28;20036;-76
2022/07/24 00:17:07;;;;;;;2.78;1.42;;;;;;;;;;5069112;28;20113;-75
2022/07/24 00:19:33;;;;;;;3.72;1.88;;;;;;;;;;5069646;28;20024;-75
2022/07/24 00:22:01;;;;;;;2.65;1.40;;;;;;;;;;5071186;28;20028;-75
2022/07/24 00:24:27;;;;;;;2.50;1.55;;;;;;;;;;5048685;28;20501;-75
2022/07/24 00:26:53;;;;;;;3.63;1.35;;;;;;;;;;5066330;28;20027;-75
2022/07/24 00:29:20;;;;;;;1.80;1.40;;;;;;;;;;5068358;28;20119;-75
2022/07/24 00:31:46;;;;;;;4.57;1.60;;;;;;;;;;5068787;28;20028;-72
2022/07/24 00:34:12;;;;;;;2.25;1.60;;;;;;;;;;5070442;28;20056;-74
2022/07/24 00:36:38;;;;;;;1.25;1.15;;;;;;;;;;5070494;28;20032;-73
2022/07/24 00:39:04;;;;;;;3.28;1.25;;;;;;;;;;5070150;28;20039;-72
2022/07/24 00:41:30;;;;;;;2.75;1.55;;;;;;;;;;5069353;28;20032;-72
2022/07/24 00:44:07;;;;;;;1.67;1.40;;;;;;;;;;5070117;28;20492;-75
2022/07/24 00:46:34;;;;;;;2.08;1.38;;;;;;;;;;5068166;28;20418;-75
2022/07/24 00:49:00;;;;;;;2.42;1.52;;;;;;;;;;5064994;28;20089;-73
2022/07/24 00:51:26;;;;;;;1.50;1.27;;;;;;;;;;5065498;28;20086;-73
2022/07/24 00:53:52;;;;;;;2.75;1.55;;;;;;;;;;5069957;28;20073;-73
2022/07/24 00:56:19;;;;;;;1.70;1.50;;;;;;;;;;5065017;28;20032;-73
2022/07/24 00:58:46;;;;;;;1.85;1.40;;;;;;;;;;5060085;28;20025;-72
2022/07/24 01:01:13;;;;;;;1.35;1.25;;;;;;;;;;5070430;28;20032;-73
2022/07/24 01:03:39;;;;;;;1.98;1.30;;;;;;;;;;5069147;28;20036;-73
2022/07/24 01:06:06;;;;;;;2.40;1.42;;;;;;;;;;5067547;28;20827;-73
2022/07/24 01:08:34;;;;;;;1.45;1.25;;;;;;;;;;5067773;28;20028;-73
2022/07/24 01:11:00;;;;;;;2.63;1.42;;;;;;;;;;5068346;28;20475;-73
2022/07/24 01:13:26;;;;;;;1.70;1.30;;;;;;;;;;5068151;28;20119;-73
2022/07/24 01:15:53;;;;;;;2.47;1.60;;;;;;;;;;5065581;28;20036;-73
2022/07/24 01:18:19;;;;;;;1.60;1.50;;;;;;;;;;5070053;28;20021;-73
2022/07/24 01:20:48;;;;;;;1.83;1.35;;;;;;;;;;5069534;28;20107;-73
2022/07/24 01:23:14;;;;;;;1.85;1.30;;;;;;;;;;5067712;28;20111;-73
2022/07/24 01:25:41;;;;;;;3.15;1.30;;;;;;;;;;5070086;28;20032;-73
2022/07/24 01:28:07;;;;;;;2.65;1.50;;;;;;;;;;5067311;28;20056;-73
2022/07/24 01:30:35;;;;;;;3.25;1.38;;;;;;;;;;5057411;28;20051;-73
2022/07/24 01:33:01;;;;;;;3.25;1.33;;;;;;;;;;5064670;28;20043;-73
2022/07/24 01:35:27;;;;;;;5.10;1.85;;;;;;;;;;5069030;28;20470;-73
2022/07/24 01:37:53;;;;;;;3.78;1.73;;;;;;;;;;5068494;28;20063;-73
2022/07/24 01:40:21;;;;;;;2.72;1.80;;;;;;;;;;5065343;28;20029;-74
2022/07/24 01:42:47;;;;;;;1.50;1.40;;;;;;;;;;5069062;28;20029;-74
2022/07/24 01:45:13;;;;;;;6.38;1.42;;;;;;;;;;5067563;28;20478;-73
2022/07/24 01:47:40;;;;;;;3.65;1.48;;;;;;;;;;5070140;28;20079;-73
2022/07/24 01:50:06;;;;;;;3.28;1.60;;;;;;;;;;5071514;28;20078;-73
2022/07/24 01:52:32;;;;;;;2.08;1.42;;;;;;;;;;5075261;28;20035;-73
2022/07/24 01:54:59;;;;;;;2.75;1.70;;;;;;;;;;5074660;28;20079;-73
2022/07/24 01:57:25;;;;;;;2.40;1.60;;;;;;;;;;5073333;28;20025;-73
2022/07/24 01:59:51;;;;;;;5.82;1.50;;;;;;;;;;5068204;28;20035;-73
2022/07/24 02:02:17;;;;;;;3.17;1.45;;;;;;;;;;5070102;28;20066;-73
2022/07/24 02:04:43;;;;;;;3.67;1.63;;;;;;;;;;5072782;28;20032;-74
2022/07/24 02:07:09;;;;;;;1.65;1.48;;;;;;;;;;5072484;28;20051;-74
2022/07/24 02:09:35;;;;;;;1.65;1.33;;;;;;;;;;5063238;28;20563;-73
2022/07/24 02:12:01;;;;;;;1.92;1.25;;;;;;;;;;5073819;28;20029;-75
2022/07/24 02:14:27;;;;;;;1.42;1.30;;;;;;;;;;5074618;28;20028;-75
2022/07/24 02:16:53;;;;;;;3.17;1.38;;;;;;;;;;5069493;28;20035;-73
2022/07/24 02:19:20;;;;;;;1.38;1.25;;;;;;;;;;5071941;28;20031;-72
2022/07/24 02:21:46;;;;;;;1.85;1.35;;;;;;;;;;5071211;28;22093;-72
2022/07/24 02:24:12;;;;;;;2.97;1.50;;;;;;;;;;5072904;28;20486;-72
2022/07/24 02:26:38;;;;;;;1.40;1.30;;;;;;;;;;5072546;28;20031;-72
2022/07/24 02:29:04;;;;;;;2.22;1.60;;;;;;;;;;5068072;28;20123;-73
2022/07/24 02:31:30;;;;;;;3.67;1.60;;;;;;;;;;5070492;28;20025;-72
2022/07/24 02:33:56;;;;;;;3.10;1.73;;;;;;;;;;5068703;28;20032;-72
2022/07/24 02:36:22;;;;;;;3.75;1.77;;;;;;;;;;5070288;28;20056;-74
2022/07/24 02:38:49;;;;;;;2.25;1.75;;;;;;;;;;5069630;28;20486;-74
2022/07/24 02:41:15;;;;;;;1.95;1.55;;;;;;;;;;5074525;28;20048;-74
2022/07/24 02:43:41;;;;;;;3.17;1.52;;;;;;;;;;5073629;28;20028;-72
2022/07/24 02:46:07;;;;;;;3.00;1.50;;;;;;;;;;5070299;28;20548;-75
2022/07/24 02:48:33;;;;;;;2.05;1.60;;;;;;;;;;5064621;28;20394;-75
2022/07/24 02:50:59;;;;;;;2.88;2.03;;;;;;;;;;5071587;28;20036;-74
2022/07/24 02:53:25;;;;;;;3.30;1.75;;;;;;;;;;5071083;28;20107;-74
2022/07/24 02:55:51;;;;;;;3.38;1.50;;;;;;;;;;5068425;28;20067;-75
2022/07/24 02:58:17;;;;;;;3.00;2.08;;;;;;;;;;5069963;28;20040;-72
2022/07/24 03:00:44;;;;;;;3.08;1.90;;;;;;;;;;5070761;28;20024;-76
2022/07/24 03:03:10;;;;;;;2.88;1.73;;;;;;;;;;5069959;28;20059;-77
2022/07/24 03:05:36;;;;;;;2.95;1.52;;;;;;;;;;5062940;28;20028;-75
2022/07/24 03:08:02;;;;;;;2.10;1.67;;;;;;;;;;5069486;28;20434;-76
2022/07/24 03:10:28;;;;;;;2.30;1.70;;;;;;;;;;5069362;28;20119;-78
2022/07/24 03:12:55;;;;;;;2.38;2.15;;;;;;;;;;5070699;28;20025;-76
2022/07/24 03:15:21;;;;;;;1.88;1.63;;;;;;;;;;5071014;28;20032;-78
2022/07/24 03:17:51;;;;;;;2.90;1.55;;;;;;;;;;5071657;28;20012;-77
2022/07/24 03:20:17;;;;;;;2.85;1.80;;;;;;;;;;5069936;28;20564;-74
2022/07/24 03:22:44;;;;;;;3.53;1.75;;;;;;;;;;5071390;28;20086;-74
2022/07/24 03:25:10;;;;;;;2.05;1.70;;;;;;;;;;5070957;28;20064;-74
2022/07/24 03:27:36;;;;;;;3.10;1.92;;;;;;;;;;5068286;28;20080;-74
2022/07/24 03:30:04;;;;;;;2.63;1.67;;;;;;;;;;5069950;28;20066;-74
2022/07/24 03:32:30;;;;;;;1.98;1.40;;;;;;;;;;5069443;28;20024;-72
2022/07/24 03:34:56;;;;;;;2.53;1.80;;;;;;;;;;5063698;28;20028;-72
2022/07/24 03:37:22;;;;;;;5.13;2.08;;;;;;;;;;5072432;28;20469;-71
2022/07/24 03:39:48;;;;;;;2.08;1.85;;;;;;;;;;5068778;28;20020;-73
2022/07/24 03:42:15;;;;;;;2.95;1.42;;;;;;;;;;5069578;28;20048;-73
2022/07/24 03:44:41;;;;;;;2.92;1.80;;;;;;;;;;5069756;28;20028;-73
2022/07/24 03:47:07;;;;;;;7.50;2.22;;;;;;;;;;5068071;28;20021;-73
2022/07/24 03:49:33;;;;;;;2.00;1.90;;;;;;;;;;5067083;28;20032;-73
2022/07/24 03:52:00;;;;;;;2.80;1.90;;;;;;;;;;5071940;28;20023;-73
2022/07/24 03:54:26;;;;;;;3.10;2.03;;;;;;;;;;5070313;28;20025;-73
2022/07/24 03:56:52;;;;;;;4.65;2.60;;;;;;;;;;5069923;28;20498;-73
2022/07/24 03:59:18;;;;;;;3.28;2.00;;;;;;;;;;5068141;28;20536;-73
2022/07/24 04:01:44;;;;;;;5.28;2.08;;;;;;;;;;5059972;28;20025;-74
2022/07/24 04:04:11;;;;;;;4.30;2.20;;;;;;;;;;5063802;28;20028;-73
2022/07/24 04:06:37;;;;;;;3.30;2.10;;;;;;;;;;5072709;28;20616;-73
2022/07/24 04:09:04;;;;;;;2.95;2.00;;;;;;;;;;5069675;28;20031;-74
2022/07/24 04:11:30;;;;;;;2.92;2.00;;;;;;;;;;5065098;28;20028;-75
2022/07/24 04:13:56;;;;;;;4.28;2.42;;;;;;;;;;5068741;28;20032;-75
2022/07/24 04:16:23;;;;;;;4.43;2.10;;;;;;;;;;5071483;28;20024;-74
2022/07/24 04:18:49;;;;;;;5.47;2.38;;;;;;;;;;5067916;28;20074;-72
2022/07/24 04:21:16;;;;;;;2.70;2.38;;;;;;;;;;5071331;28;20111;-75
2022/07/24 04:23:42;;;;;;;3.92;2.40;;;;;;;;;;5072629;28;20063;-75
2022/07/24 04:26:08;;;;;;;4.18;2.83;;;;;;;;;;5069710;28;20043;-75
2022/07/24 04:28:34;;;;;;;6.03;2.78;;;;;;;;;;5070854;28;20041;-76
2022/07/24 04:31:00;;;;;;;3.88;2.70;;;;;;;;;;5069081;28;20541;-76
2022/07/24 04:33:26;;;;;;;5.93;2.63;;;;;;;;;;5067798;28;20032;-76
2022/07/24 04:35:53;;;;;;;3.38;2.70;;;;;;;;;;5067220;28;20035;-76
2022/07/24 04:38:19;;;;;;;4.88;3.35;;;;;;;;;;5067679;28;20389;-76
2022/07/24 04:40:45;;;;;;;4.20;2.80;;;;;;;;;;5064042;28;20034;-76
2022/07/24 04:43:11;;;;;;;5.25;3.05;;;;;;;;;;5069869;28;20081;-76
2022/07/24 04:45:37;;;;;;;3.22;2.60;;;;;;;;;;5069530;28;20032;-75
2022/07/24 04:48:03;;;;;;;2.83;2.45;;;;;;;;;;5062939;28;20039;-75
2022/07/24 04:50:29;;;;;;;4.88;2.67;;;;;;;;;;5063275;28;20032;-75
2022/07/24 04:52:56;;;;;;;3.33;3.00;;;;;;;;;;5070189;28;20506;-74
2022/07/24 04:55:22;;;;;;;5.38;3.33;;;;;;;;;;5067124;28;20611;-75
2022/07/24 04:57:48;;;;;;;4.20;2.95;;;;;;;;;;5065502;28;20059;-72
2022/07/24 05:00:14;;;;;;;4.47;3.30;;;;;;;;;;5063884;28;20052;-75
2022/07/24 05:02:41;;;;;;;4.20;3.17;;;;;;;;;;5066972;28;20527;-76
2022/07/24 05:05:07;;;;;;;5.72;3.60;;;;;;;;;;5071464;28;20111;-73
2022/07/24 05:07:33;;;;;;;3.60;3.00;;;;;;;;;;5066488;28;20347;-73
2022/07/24 05:10:00;;;;;;;3.47;3.17;;;;;;;;;;5062467;28;20481;-73
2022/07/24 05:12:26;;;;;;;3.97;2.58;;;;;;;;;;5076991;28;20401;-73
2022/07/24 05:14:52;;;;;;;4.03;3.08;;;;;;;;;;5072111;28;20366;-73
2022/07/24 05:17:19;;;;;;;5.57;3.55;;;;;;;;;;5069990;28;20013;-73
2022/07/24 05:19:45;;;;;;;6.10;3.30;;;;;;;;;;5065327;28;20028;-73
2022/07/24 05:22:11;;;;;;;4.40;3.15;;;;;;;;;;5072791;28;20078;-74
2022/07/24 05:24:37;;;;;;;6.18;3.28;;;;;;;;;;5071904;28;20020;-74
2022/07/24 05:27:03;;;;;;;4.78;3.28;;;;;;;;;;5075572;28;20043;-73
2022/07/24 05:29:29;;;;;;;4.13;3.00;;;;;;;;;;5067925;28;20020;-73
2022/07/24 05:31:56;;;;;;;4.90;2.90;;;;;;;;;;5073372;28;20099;-74
2022/07/24 05:34:23;;;;;;;4.43;3.00;;;;;;;;;;5069342;28;20230;-74
2022/07/24 05:36:49;;;;;;;5.50;3.30;;;;;;;;;;5071377;28;20033;-73
2022/07/24 05:39:15;;;;;;;6.40;3.67;;;;;;;;;;5071044;28;20474;-73
2022/07/24 05:41:41;;;;;;;4.80;3.42;;;;;;;;;;5070250;28;20024;-74
2022/07/24 05:44:07;;;;;;;4.43;3.03;;;;;;;;;;5073262;28;20474;-73
2022/07/24 05:46:34;;;;;;;3.67;2.72;;;;;;;;;;5071668;28;20032;-73
2022/07/24 05:49:00;;;;;;;4.75;2.75;;;;;;;;;;5067478;28;20025;-73
2022/07/24 05:51:26;;;;;;;5.93;3.17;;;;;;;;;;5071988;28;20082;-73
2022/07/24 05:53:52;;;;;;;7.65;2.72;;;;;;;;;;5071155;28;20120;-73
2022/07/24 05:56:18;;;;;;;3.45;2.90;;;;;;;;;;5069513;28;20032;-73
2022/07/24 05:58:45;;;;;;;4.13;3.22;;;;;;;;;;5070714;28;20112;-74
2022/07/24 06:01:11;;;;;;;5.07;3.17;;;;;;;;;;5062427;28;20074;-73
2022/07/24 06:03:37;;;;;;;3.97;2.60;;;;;;;;;;5063369;28;20573;-73
2022/07/24 06:06:06;;;;;;;5.28;2.40;;;;;;;;;;5062635;28;20024;-73
2022/07/24 06:08:32;;;;;;;4.25;2.70;;;;;;;;;;5062881;28;20029;-73
2022/07/24 06:10:58;;;;;;;7.40;2.90;;;;;;;;;;5060557;28;20028;-73
2022/07/24 06:13:25;;;;;;;7.43;2.78;;;;;;;;;;5064049;28;20124;-73
2022/07/24 06:15:51;;;;;;;3.75;2.90;;;;;;;;;;5061014;28;20556;-73
2022/07/24 06:18:17;;;;;;;7.88;2.63;;;;;;;;;;5061620;28;20028;-73
2022/07/24 06:20:43;;;;;;;3.95;2.15;;;;;;;;;;5058420;28;20500;-73
2022/07/24 06:23:09;;;;;;;4.32;2.42;;;;;;;;;;5062815;28;20032;-73
2022/07/24 06:25:35;;;;;;;2.80;2.30;;;;;;;;;;5067699;28;20028;-73
2022/07/24 06:28:01;;;;;;;3.20;2.35;;;;;;;;;;5069237;28;20435;-72
2022/07/24 06:30:28;;;;;;;2.30;1.98;;;;;;;;;;5068892;28;20028;-74
2022/07/24 06:32:55;;;;;;;3.97;2.03;;;;;;;;;;5072406;28;20036;-74
2022/07/24 06:35:22;;;;;;;3.83;1.75;;;;;;;;;;5071696;28;20512;-74
2022/07/24 06:37:48;;;;;;;3.20;2.00;;;;;;;;;;5073319;28;20467;-74
2022/07/24 06:40:15;;;;;;;2.75;1.80;;;;;;;;;;5067718;28;20062;-74
2022/07/24 06:42:42;;;;;;;4.68;1.80;;;;;;;;;;5064079;28;20029;-74
2022/07/24 06:45:08;;;;;;;2.03;1.70;;;;;;;;;;5057949;28;20429;-74
2022/07/24 06:47:34;;;;;;;2.15;1.95;;;;;;;;;;5066076;28;20036;-71
2022/07/24 06:50:00;;;;;;;2.20;1.75;;;;;;;;;;5065995;28;20048;-71
2022/07/24 06:52:26;;;;;;;1.70;1.52;;;;;;;;;;5071249;28;21266;-70
2022/07/24 06:54:53;;;;;;;3.40;1.88;;;;;;;;;;5072411;28;20059;-71
2022/07/24 06:57:19;;;;;;;3.05;1.60;;;;;;;;;;5071117;28;20107;-74
2022/07/24 06:59:45;;;;;;;2.72;1.85;;;;;;;;;;5069709;28;20462;-74
2022/07/24 07:02:11;;;;;;;1.88;1.48;;;;;;;;;;5067211;28;20052;-74
2022/07/24 07:04:38;;;;;;;1.60;1.50;;;;;;;;;;5069289;28;20033;-74
2022/07/24 07:07:04;;;;;;;2.05;1.40;;;;;;;;;;5069538;28;20516;-74
2022/07/24 07:09:30;;;;;;;2.83;1.25;;;;;;;;;;5066366;28;20029;-74
2022/07/24 07:11:57;;;;;;;1.55;1.38;;;;;;;;;;5061573;28;20020;-73
2022/07/24 07:14:23;;;;;;;1.83;1.42;;;;;;;;;;5062210;28;20032;-74
2022/07/24 07:16:49;;;;;;;3.08;1.50;;;;;;;;;;5068875;28;20024;-73
2022/07/24 07:19:15;;;;;;;1.55;1.40;;;;;;;;;;5066792;28;20021;-73
2022/07/24 07:21:41;;;;;;;1.38;1.27;;;;;;;;;;5069530;28;20028;-74
2022/07/24 07:24:07;;;;;;;2.00;1.63;;;;;;;;;;5067157;28;20024;-74
2022/07/24 07:26:34;;;;;;;1.65;1.30;;;;;;;;;;5071069;28;20035;-74
2022/07/24 07:29:00;;;;;;;2.90;1.40;;;;;;;;;;5067210;28;20055;-74
2022/07/24 07:31:27;;;;;;;2.35;1.10;;;;;;;;;;5067644;28;20047;-74
2022/07/24 07:33:54;;;;;;;2.15;1.55;;;;;;;;;;5071682;28;20082;-73
2022/07/24 07:36:20;;;;;;;1.23;1.13;;;;;;;;;;5068080;28;20028;-73
2022/07/24 07:38:46;;;;;;;2.22;1.80;;;;;;;;;;5071063;28;20052;-71
2022/07/24 07:41:12;;;;;;;6.38;1.48;;;;;;;;;;5071944;28;20063;-72
2022/07/24 07:43:39;;;;;;;5.18;1.13;;;;;;;;;;5070458;28;20029;-72
2022/07/24 07:46:05;;;;;;;1.27;1.10;;;;;;;;;;5067103;28;20394;-72
2022/07/24 07:48:32;;;;;;;1.65;1.17;;;;;;;;;;5066412;28;20028;-71
2022/07/24 07:50:58;;;;;;;1.52;1.10;;;;;;;;;;5068461;28;20045;-72
2022/07/24 07:53:24;;;;;;;1.10;1.00;;;;;;;;;;5070113;28;20036;-71
2022/07/24 07:55:52;;;;;;;4.78;1.00;;;;;;;;;;5068922;28;20025;-71
2022/07/24 07:58:22;;;;;;;1.30;0.90;;;;;;;;;;5064903;28;20112;-71
2022/07/24 08:00:48;;;;;;;1.13;1.00;;;;;;;;;;5066089;28;20040;-70
2022/07/24 08:03:14;;;;;;;1.20;1.10;;;;;;;;;;5064337;28;20031;-70
2022/07/24 08:05:40;;;;;;;1.92;1.08;;;;;;;;;;5066845;28;20112;-69
2022/07/24 08:08:07;;;;;;;1.35;0.85;;;;;;;;;;5069558;28;20115;-69
2022/07/24 08:10:33;;;;;;;4.60;0.90;;;;;;;;;;5068182;28;20048;-69
2022/07/24 08:12:59;;;;;;;1.35;0.88;;;;;;;;;;5070527;28;20029;-67
2022/07/24 08:15:25;;;;;;;1.58;0.85;;;;;;;;;;5066141;28;20082;-67
2022/07/24 08:17:55;;;;;;;2.55;0.85;;;;;;;;;;5066333;28;20025;-67
2022/07/24 08:20:22;;;;;;;2.13;1.00;;;;;;;;;;5067183;28;20071;-68
2022/07/24 08:22:48;;;;;;;2.28;1.40;;;;;;;;;;5063604;28;20013;-68
2022/07/24 08:25:14;;;;;;;1.75;0.98;;;;;;;;;;5055202;28;20376;-67
2022/07/24 08:27:41;;;;;;;2.10;1.02;;;;;;;;;;5068212;28;20545;-68
2022/07/24 08:30:07;;;;;;;1.17;1.08;;;;;;;;;;5066641;28;20097;-68
2022/07/24 08:32:34;;;;;;;3.97;0.80;;;;;;;;;;5068037;28;20466;-68
2022/07/24 08:35:00;;;;;;;2.67;0.90;;;;;;;;;;5060156;28;20127;-74
2022/07/24 08:37:26;;;;;;;1.33;0.80;;;;;;;;;;5060447;28;20389;-73
2022/07/24 08:39:54;;;;;;;3.78;1.10;;;;;;;;;;5063963;28;20031;-72
2022/07/24 08:42:20;;;;;;;1.00;0.90;;;;;;;;;;5065364;28;20402;-72
2022/07/24 08:44:47;;;;;;;1.00;0.88;;;;;;;;;;5064647;28;20107;-72
2022/07/24 08:47:15;;;;;;;1.17;0.90;;;;;;;;;;5064984;28;20020;-72
2022/07/24 08:49:41;;;;;;;1.73;0.88;;;;;;;;;;5064121;28;20028;-72
2022/07/24 08:52:08;;;;;;;1.67;0.82;;;;;;;;;;5069266;28;20028;-72
2022/07/24 08:54:35;;;;;;;0.90;0.70;;;;;;;;;;5064434;28;20086;-72
2022/07/24 08:57:01;;;;;;;1.25;0.80;;;;;;;;;;5067638;28;20539;-72
2022/07/24 08:59:27;;;;;;;2.85;1.10;;;;;;;;;;5066479;28;20029;-72
2022/07/24 09:01:54;;;;;;;2.17;0.70;;;;;;;;;;5061289;28;20052;-72
2022/07/24 09:04:35;;;;;;;2.63;0.80;;;;;;;;;;5062384;28;20029;-72
2022/07/24 09:07:02;;;;;;;1.63;0.68;;;;;;;;;;5065837;28;20027;-72
2022/07/24 09:09:29;;;;;;;0.75;0.65;;;;;;;;;;5067682;28;20033;-72
2022/07/24 09:12:14;;;;;;;2.92;1.08;;;;;;;;;;5069529;28;20020;-72
2022/07/24 09:14:42;;;;;;;0.80;0.60;;;;;;;;;;5064215;28;20417;-72
2022/07/24 09:17:13;;;;;;;0.77;0.77;;;;;;;;;;5064135;28;20029;-80
2022/07/24 09:19:48;;;;;;;2.08;0.55;;;;;;;;;;5066504;28;20029;-86
2022/07/24 09:22:24;;;;;;;1.92;0.80;;;;;;;;;;5066690;28;20056;-80
2022/07/24 09:25:04;;;;;;;1.23;0.73;;;;;;;;;;5060873;28;20028;-82
2022/07/24 09:27:30;;;;;;;2.60;1.00;;;;;;;;;;5067752;28;20055;-81
2022/07/24 09:29:57;;;;;;;1.02;0.70;;;;;;;;;;5066649;28;20509;-82
2022/07/24 09:32:23;;;;;;;0.95;0.75;;;;;;;;;;5067052;28;20060;-79
2022/07/24 09:34:51;;;;;;;0.85;0.77;;;;;;;;;;5068679;28;20024;-79
2022/07/24 09:37:17;;;;;;;0.70;0.60;;;;;;;;;;5070828;28;20048;-78
2022/07/24 09:39:44;;;;;;;0.88;0.70;;;;;;;;;;5063891;28;20386;-78
2022/07/24 09:42:11;;;;;;;0.68;0.68;;;;;;;;;;5066521;28;20033;-74
2022/07/24 09:44:37;;;;;;;1.42;0.60;;;;;;;;;;5068172;28;20020;-74
2022/07/24 09:47:07;;;;;;;1.08;0.90;;;;;;;;;;5064737;28;20025;-73
2022/07/24 09:49:35;;;;;;;0.90;0.63;;;;;;;;;;5062260;28;20147;-73
2022/07/24 09:52:10;;;;;;;0.70;0.70;;;;;;;;;;5067383;28;20385;-73
2022/07/24 09:54:37;;;;;;;1.38;0.80;;;;;;;;;;5068091;28;20382;-73
2022/07/24 09:57:17;;;;;;;1.40;0.80;;;;;;;;;;5065776;28;20489;-73
2022/07/24 09:59:46;;;;;;;3.42;0.90;;;;;;;;;;5063550;28;20078;-73
2022/07/24 10:02:13;;;;;;;1.90;0.77;;;;;;;;;;5057469;28;20044;-73
2022/07/24 10:04:41;;;;;;;2.92;0.90;;;;;;;;;;5063072;28;20554;-73
2022/07/24 10:07:09;;;;;;;1.00;0.68;;;;;;;;;;5062298;28;20104;-73
2022/07/24 10:09:36;;;;;;;1.55;0.73;;;;;;;;;;5072479;28;20457;-74
2022/07/24 10:12:04;;;;;;;0.88;0.70;;;;;;;;;;5067924;28;20099;-73
2022/07/24 10:14:30;;;;;;;0.80;0.80;;;;;;;;;;5066897;28;20090;-77
2022/07/24 10:17:05;;;;;;;0.70;0.70;;;;;;;;;;5065079;28;20028;-76
2022/07/24 10:19:38;;;;;;;2.75;0.70;;;;;;;;;;5067852;28;20123;-76
2022/07/24 10:22:09;;;;;;;0.95;0.75;;;;;;;;;;5067805;28;20049;-76
2022/07/24 10:24:35;;;;;;;2.15;0.85;;;;;;;;;;5071347;28;20032;-76
2022/07/24 10:27:04;;;;;;;0.77;0.60;;;;;;;;;;5063969;28;20059;-75
2022/07/24 10:29:31;;;;;;;1.10;0.60;;;;;;;;;;5070483;28;20115;-76
2022/07/24 10:31:58;;;;;;;2.33;0.95;;;;;;;;;;5064882;28;20041;-76
2022/07/24 10:34:24;;;;;;;1.00;0.63;;;;;;;;;;5063288;28;20036;-76
2022/07/24 10:37:09;;;;;;;1.15;0.93;;;;;;;;;;5072475;28;20101;-76
2022/07/24 10:39:39;;;;;;;3.00;1.10;;;;;;;;;;5059179;28;20025;-78
2022/07/24 10:42:06;;;;;;;2.78;0.90;;;;;;;;;;5058506;28;20029;-79
2022/07/24 10:44:33;;;;;;;2.97;0.90;;;;;;;;;;5062854;28;20059;-80
2022/07/24 10:46:59;;;;;;;1.25;0.90;;;;;;;;;;5060065;28;20116;-77
2022/07/24 10:49:35;;;;;;;1.10;1.00;;;;;;;;;;5067726;28;20032;-78
2022/07/24 10:52:02;;;;;;;1.90;1.02;;;;;;;;;;5073863;28;20035;-78
2022/07/24 10:54:28;;;;;;;1.30;0.85;;;;;;;;;;5065686;28;20087;-78
2022/07/24 10:56:54;;;;;;;0.80;0.73;;;;;;;;;;5067368;28;20039;-78
2022/07/24 10:59:33;;;;;;;4.03;0.90;;;;;;;;;;5069436;28;20024;-78
2022/07/24 11:02:19;;;;;;;2.17;1.50;;;;;;;;;;5067058;28;20446;-79
2022/07/24 11:04:45;;;;;;;2.38;1.08;;;;;;;;;;5068551;28;20021;-78
2022/07/24 11:07:13;;;;;;;1.30;1.10;;;;;;;;;;5066077;28;20032;-78
2022/07/24 11:09:56;;;;;;;0.80;0.70;;;;;;;;;;5067348;28;20024;-78
2022/07/24 11:12:29;;;;;;;1.38;1.00;;;;;;;;;;5063739;28;20066;-77
2022/07/24 11:15:53;;;;;;;4.40;0.85;;;;;;;;;;5062410;28;20025;-77
2022/07/24 11:17:47;;;;;;;1.70;0.77;;;;;;;;;;5068245;28;20040;-76
2022/07/24 11:20:21;;;;;;;1.90;1.02;;;;;;;;;;5067784;28;20391;-76
2022/07/24 11:22:49;;;;;;;2.47;1.25;;;;;;;;;;5068821;28;20028;-76
2022/07/24 11:25:16;;;;;;;2.30;1.20;;;;;;;;;;5066399;28;20183;-76
2022/07/24 11:27:47;;;;;;;1.33;0.90;;;;;;;;;;5063617;28;20127;-77
2022/07/24 11:30:13;;;;;;;2.05;1.23;;;;;;;;;;5061115;28;20036;-76
2022/07/24 11:32:40;;;;;;;1.42;0.93;;;;;;;;;;5064742;28;20028;-77
2022/07/24 11:35:08;;;;;;;6.43;1.20;;;;;;;;;;5065110;28;20025;-75
2022/07/24 11:37:37;;;;;;;8.85;1.00;;;;;;;;;;5066931;28;20033;-75
2022/07/24 11:40:05;;;;;;;1.48;0.90;;;;;;;;;;5069389;28;20111;-77
2022/07/24 11:42:32;;;;;;;2.17;0.90;;;;;;;;;;5070838;28;20059;-75
2022/07/24 11:44:58;;;;;;;0.90;0.88;;;;;;;;;;5068253;28;20410;-76
2022/07/24 11:47:26;;;;;;;1.58;0.90;;;;;;;;;;5063998;28;20486;-76
2022/07/24 11:49:53;;;;;;;2.05;1.00;;;;;;;;;;5069943;28;20524;-76
2022/07/24 11:52:22;;;;;;;4.45;2.00;;;;;;;;;;5065523;28;20438;-76
2022/07/24 11:54:49;;;;;;;1.88;0.95;;;;;;;;;;5062359;28;20021;-76
2022/07/24 11:57:17;;;;;;;1.10;0.80;;;;;;;;;;5059575;28;20506;-76
2022/07/24 11:59:43;;;;;;;1.90;1.10;;;;;;;;;;5060929;28;20139;-76
2022/07/24 12:02:10;;;;;;;1.45;1.00;;;;;;;;;;5057326;28;20042;-76
2022/07/24 12:04:37;;;;;;;2.25;1.25;;;;;;;;;;5058762;28;20025;-76
2022/07/24 12:07:07;;;;;;;1.10;1.00;;;;;;;;;;5055995;28;20035;-76
2022/07/24 12:09:33;;;;;;;2.45;1.10;;;;;;;;;;5056089;28;20072;-76
2022/07/24 12:11:59;;;;;;;3.80;1.30;;;;;;;;;;5067750;28;20034;-76
2022/07/24 12:14:25;;;;;;;1.77;1.30;;;;;;;;;;5066352;28;20025;-76
2022/07/24 12:16:53;;;;;;;2.53;1.17;;;;;;;;;;5068885;28;20042;-76
2022/07/24 12:19:20;;;;;;;3.97;1.08;;;;;;;;;;5060703;28;20029;-76
2022/07/24 12:21:47;;;;;;;1.17;1.00;;;;;;;;;;5065377;28;20031;-76
2022/07/24 12:24:14;;;;;;;1.90;0.93;;;;;;;;;;5058322;28;20033;-76
2022/07/24 12:26:56;;;;;;;0.80;0.70;;;;;;;;;;5060807;28;20024;-76
2022/07/24 12:29:23;;;;;;;1.67;1.10;;;;;;;;;;5058345;28;20494;-76
2022/07/24 12:31:49;;;;;;;1.83;1.30;;;;;;;;;;5058884;28;20111;-76
2022/07/24 12:34:16;;;;;;;3.03;1.05;;;;;;;;;;5058126;28;20111;-76
2022/07/24 12:36:43;;;;;;;2.83;1.38;;;;;;;;;;5055819;28;20064;-76
2022/07/24 12:39:11;;;;;;;2.80;1.67;;;;;;;;;;5060750;28;20500;-76
2022/07/24 12:41:50;;;;;;;5.43;1.80;;;;;;;;;;5063791;28;20537;-76
2022/07/24 12:44:17;;;;;;;6.55;1.67;;;;;;;;;;5061404;28;20037;-76
2022/07/24 12:46:47;;;;;;;3.20;1.42;;;;;;;;;;5064768;28;20513;-76
2022/07/24 12:49:21;;;;;;;5.00;1.48;;;;;;;;;;5061571;28;20115;-76
2022/07/24 12:51:58;;;;;;;6.93;1.75;;;;;;;;;;5058594;28;20024;-76
2022/07/24 12:54:24;;;;;;;4.63;1.77;;;;;;;;;;5060104;28;20024;-75
2022/07/24 12:56:51;;;;;;;3.47;1.70;;;;;;;;;;5062730;28;20421;-75
2022/07/24 12:59:31;;;;;;;4.80;1.73;;;;;;;;;;5064821;28;20499;-76
2022/07/24 13:01:58;;;;;;;3.65;1.52;;;;;;;;;;5058722;28;20142;-76
2022/07/24 13:04:25;;;;;;;2.35;1.35;;;;;;;;;;5063932;28;20049;-76
2022/07/24 13:06:55;;;;;;;5.90;1.70;;;;;;;;;;5065686;28;20036;-76
2022/07/24 13:09:22;;;;;;;5.78;1.55;;;;;;;;;;5057260;28;20048;-76
2022/07/24 13:11:49;;;;;;;3.05;1.30;;;;;;;;;;5052083;28;20120;-76
2022/07/24 13:14:16;;;;;;;2.60;1.45;;;;;;;;;;5062136;28;20040;-76
2022/07/24 13:16:43;;;;;;;7.30;1.83;;;;;;;;;;5066867;28;20039;-77
2022/07/24 13:19:09;;;;;;;3.45;1.27;;;;;;;;;;5067682;28;20070;-76
2022/07/24 13:21:36;;;;;;;1.50;1.08;;;;;;;;;;5064725;28;20028;-77
2022/07/24 13:24:03;;;;;;;3.53;1.50;;;;;;;;;;5066846;28;20793;-76
2022/07/24 13:26:29;;;;;;;3.72;1.10;;;;;;;;;;5069919;28;20139;-76
2022/07/24 13:28:55;;;;;;;4.18;1.25;;;;;;;;;;5068704;28;20051;-76
2022/07/24 13:31:21;;;;;;;3.28;1.40;;;;;;;;;;5060869;28;20043;-76
2022/07/24 13:33:47;;;;;;;3.20;1.48;;;;;;;;;;5061132;28;20124;-74
2022/07/24 13:36:14;;;;;;;2.67;1.60;;;;;;;;;;5063489;28;20059;-74
2022/07/24 13:38:40;;;;;;;5.70;1.30;;;;;;;;;;5063831;28;20017;-74
2022/07/24 13:41:07;;;;;;;5.55;1.35;;;;;;;;;;5068917;28;20021;-74
2022/07/24 13:43:33;;;;;;;3.90;1.70;;;;;;;;;;5073339;28;20098;-74
2022/07/24 13:45:59;;;;;;;2.15;1.38;;;;;;;;;;5070024;28;20052;-74
2022/07/24 13:48:25;;;;;;;5.15;1.33;;;;;;;;;;5064438;28;20055;-74
2022/07/24 13:50:51;;;;;;;6.25;1.95;;;;;;;;;;5073086;28;20032;-74
2022/07/24 13:53:17;;;;;;;3.47;1.50;;;;;;;;;;5072622;28;20024;-74
2022/07/24 13:55:43;;;;;;;4.25;1.75;;;;;;;;;;5071683;28;20142;-74
2022/07/24 13:58:10;;;;;;;6.22;1.40;;;;;;;;;;5063813;28;20032;-74
2022/07/24 14:00:36;;;;;;;3.40;1.23;;;;;;;;;;5070054;28;20059;-74
2022/07/24 14:03:02;;;;;;;7.45;1.45;;;;;;;;;;5068514;28;20432;-74
2022/07/24 14:05:28;;;;;;;6.93;1.40;;;;;;;;;;5065008;28;20501;-74
2022/07/24 14:07:54;;;;;;;7.53;1.70;;;;;;;;;;5068511;28;20383;-74
2022/07/24 14:10:21;;;;;;;5.68;1.80;;;;;;;;;;5067619;28;20807;-74
2022/07/24 14:12:47;;;;;;;3.83;1.30;;;;;;;;;;5072976;28;20056;-74
2022/07/24 14:15:14;;;;;;;6.25;1.60;;;;;;;;;;5070793;28;20119;-74
2022/07/24 14:17:41;;;;;;;5.47;1.67;;;;;;;;;;5068236;28;20032;-74
2022/07/24 14:20:07;;;;;;;4.43;1.40;;;;;;;;;;5088018;28;20024;-73
2022/07/24 14:22:34;;;;;;;4.70;1.75;;;;;;;;;;5070993;28;20032;-73
2022/07/24 14:25:00;;;;;;;6.60;1.50;;;;;;;;;;5071891;28;20503;-73
2022/07/24 14:27:27;;;;;;;2.47;1.33;;;;;;;;;;5069122;28;20170;-72
2022/07/24 14:29:54;;;;;;;3.38;1.38;;;;;;;;;;5069618;28;20037;-74
2022/07/24 14:32:20;;;;;;;3.88;1.20;;;;;;;;;;5070580;28;20110;-74
2022/07/24 14:34:46;;;;;;;1.90;1.38;;;;;;;;;;5072368;28;20081;-74
2022/07/24 14:37:12;;;;;;;2.47;1.15;;;;;;;;;;5069690;28;20033;-74
2022/07/24 14:39:38;;;;;;;1.58;1.10;;;;;;;;;;5066895;28;20030;-75
2022/07/24 14:42:05;;;;;;;2.97;1.40;;;;;;;;;;5068454;28;20016;-75